sensor_id;sensor_type;location;lat;lon;timestamp;pressure;altitude;pressure_sealevel;temperature;humidity
77159;BME280;66129;45.890;13.714;2023-04-24T00:01:28;100298.75;;;13.74;82.41
77159;BME280;66129;45.890;13.714;2023-04-24T00:03:55;100304.75;;;13.70;82.31
77159;BME280;66129;45.890;13.714;2023-04-24T00:06:25;100248.09;;;13.46;81.66
77159;BME280;66129;45.890;13.714;2023-04-24T00:09:01;100264.41;;;13.54;81.61
77159;BME280;66129;45.890;13.714;2023-04-24T00:11:27;100267.84;;;13.59;80.68
77159;BME280;66129;45.890;13.714;2023-04-24T00:13:52;100287.59;;;13.71;80.48
77159;BME280;66129;45.890;13.714;2023-04-24T00:16:18;100279.88;;;13.65;80.24
77159;BME280;66129;45.890;13.714;2023-04-24T00:18:44;100234.38;;;13.31;79.91
77159;BME280;66129;45.890;13.714;2023-04-24T00:21:13;100232.66;;;13.15;80.37
77159;BME280;66129;45.890;13.714;2023-04-24T00:23:40;100289.28;;;13.51;80.50
77159;BME280;66129;45.890;13.714;2023-04-24T00:26:05;100291.03;;;13.47;81.18
77159;BME280;66129;45.890;13.714;2023-04-24T00:28:31;100254.09;;;13.20;81.35
77159;BME280;66129;45.890;13.714;2023-04-24T00:30:57;100239.53;;;13.16;81.58
77159;BME280;66129;45.890;13.714;2023-04-24T00:33:22;100278.13;;;13.41;80.69
77159;BME280;66129;45.890;13.714;2023-04-24T00:35:48;100281.56;;;13.37;78.85
77159;BME280;66129;45.890;13.714;2023-04-24T00:38:13;100263.53;;;13.17;80.21
77159;BME280;66129;45.890;13.714;2023-04-24T00:40:39;100251.53;;;13.29;80.47
77159;BME280;66129;45.890;13.714;2023-04-24T00:43:05;100258.41;;;13.42;78.92
77159;BME280;66129;45.890;13.714;2023-04-24T00:45:30;100268.72;;;13.58;78.53
77159;BME280;66129;45.890;13.714;2023-04-24T00:47:57;100236.94;;;13.44;78.49
77159;BME280;66129;45.890;13.714;2023-04-24T00:50:23;100251.53;;;13.50;79.08
77159;BME280;66129;45.890;13.714;2023-04-24T00:52:49;100229.22;;;13.38;78.66
77159;BME280;66129;45.890;13.714;2023-04-24T00:55:15;100250.69;;;13.48;80.01
77159;BME280;66129;45.890;13.714;2023-04-24T00:57:41;100166.63;;;12.95;80.26
77159;BME280;66129;45.890;13.714;2023-04-24T01:00:07;100164.88;;;12.92;81.26
77159;BME280;66129;45.890;13.714;2023-04-24T01:02:36;100238.66;;;13.23;82.22
77159;BME280;66129;45.890;13.714;2023-04-24T01:05:06;100201.75;;;12.93;82.75
77159;BME280;66129;45.890;13.714;2023-04-24T01:07:33;100250.66;;;13.24;83.17
77159;BME280;66129;45.890;13.714;2023-04-24T01:09:59;100185.44;;;12.83;83.74
77159;BME280;66129;45.890;13.714;2023-04-24T01:12:25;100226.66;;;13.13;83.79
77159;BME280;66129;45.890;13.714;2023-04-24T01:14:50;100212.06;;;13.06;84.20
77159;BME280;66129;45.890;13.714;2023-04-24T01:17:16;100226.63;;;13.09;84.80
77159;BME280;66129;45.890;13.714;2023-04-24T01:19:42;100217.19;;;13.08;84.69
77159;BME280;66129;45.890;13.714;2023-04-24T01:22:15;100240.38;;;13.34;84.83
77159;BME280;66129;45.890;13.714;2023-04-24T01:24:42;100247.25;;;13.40;83.94
77159;BME280;66129;45.890;13.714;2023-04-24T01:27:09;100230.97;;;13.31;84.03
77159;BME280;66129;45.890;13.714;2023-04-24T01:29:36;100165.72;;;12.90;84.53
77159;BME280;66129;45.890;13.714;2023-04-24T01:32:02;100209.50;;;13.06;85.27
77159;BME280;66129;45.890;13.714;2023-04-24T01:34:28;100189.75;;;12.99;85.41
77159;BME280;66129;45.890;13.714;2023-04-24T01:36:54;100210.34;;;13.08;85.65
77159;BME280;66129;45.890;13.714;2023-04-24T01:39:21;100212.94;;;13.08;85.52
77159;BME280;66129;45.890;13.714;2023-04-24T01:41:48;100214.63;;;13.14;85.96
77159;BME280;66129;45.890;13.714;2023-04-24T01:44:15;100212.94;;;13.14;85.77
77159;BME280;66129;45.890;13.714;2023-04-24T01:46:41;100216.38;;;13.16;86.20
77159;BME280;66129;45.890;13.714;2023-04-24T01:49:07;100171.72;;;12.89;85.70
77159;BME280;66129;45.890;13.714;2023-04-24T01:51:32;100177.75;;;12.98;86.11
77159;BME280;66129;45.890;13.714;2023-04-24T01:53:58;100163.16;;;12.94;86.01
77159;BME280;66129;45.890;13.714;2023-04-24T01:56:24;100206.06;;;13.21;85.80
77159;BME280;66129;45.890;13.714;2023-04-24T01:58:52;100161.44;;;12.96;86.02
77159;BME280;66129;45.890;13.714;2023-04-24T02:01:19;100200.94;;;13.19;86.37
77159;BME280;66129;45.890;13.714;2023-04-24T02:03:45;100192.34;;;13.14;86.17
77159;BME280;66129;45.890;13.714;2023-04-24T02:06:11;100166.63;;;13.14;86.13
77159;BME280;66129;45.890;13.714;2023-04-24T02:08:36;100186.31;;;13.27;85.66
77159;BME280;66129;45.890;13.714;2023-04-24T02:11:02;100186.31;;;13.30;85.20
77159;BME280;66129;45.890;13.714;2023-04-24T02:13:28;100171.75;;;13.38;83.54
77159;BME280;66129;45.890;13.714;2023-04-24T02:15:53;100136.56;;;13.31;83.04
77159;BME280;66129;45.890;13.714;2023-04-24T02:18:19;100120.25;;;13.23;82.50
77159;BME280;66129;45.890;13.714;2023-04-24T02:20:45;100156.25;;;13.53;82.67
77159;BME280;66129;45.890;13.714;2023-04-24T02:23:10;100139.97;;;13.49;82.97
77159;BME280;66129;45.890;13.714;2023-04-24T02:25:36;100184.56;;;13.77;81.94
77159;BME280;66129;45.890;13.714;2023-04-24T02:28:02;100154.50;;;13.70;80.53
77159;BME280;66129;45.890;13.714;2023-04-24T02:30:28;100115.94;;;13.49;79.81
77159;BME280;66129;45.890;13.714;2023-04-24T02:32:53;100176.75;;;14.01;78.20
77159;BME280;66129;45.890;13.714;2023-04-24T02:35:19;100177.59;;;14.06;78.19
77159;BME280;66129;45.890;13.714;2023-04-24T02:37:45;100168.13;;;14.03;78.03
77159;BME280;66129;45.890;13.714;2023-04-24T02:40:10;100174.09;;;14.25;77.54
77159;BME280;66129;45.890;13.714;2023-04-24T02:42:36;100121.84;;;13.82;78.41
77159;BME280;66129;45.890;13.714;2023-04-24T02:45:02;100180.19;;;13.91;80.03
77159;BME280;66129;45.890;13.714;2023-04-24T02:47:27;100199.94;;;13.98;81.73
77159;BME280;66129;45.890;13.714;2023-04-24T02:49:53;100178.50;;;13.85;80.69
77159;BME280;66129;45.890;13.714;2023-04-24T02:52:18;100176.78;;;13.84;82.49
77159;BME280;66129;45.890;13.714;2023-04-24T02:54:44;100138.22;;;13.50;82.55
77159;BME280;66129;45.890;13.714;2023-04-24T02:57:09;100166.56;;;13.50;84.76
77159;BME280;66129;45.890;13.714;2023-04-24T02:59:35;100128.84;;;13.18;85.68
77159;BME280;66129;45.890;13.714;2023-04-24T03:02:00;100148.56;;;13.20;86.36
77159;BME280;66129;45.890;13.714;2023-04-24T03:04:26;100141.72;;;13.15;87.08
77159;BME280;66129;45.890;13.714;2023-04-24T03:06:52;100140.00;;;13.05;88.23
77159;BME280;66129;45.890;13.714;2023-04-24T03:09:20;100139.19;;;13.00;88.20
77159;BME280;66129;45.890;13.714;2023-04-24T03:11:46;100126.28;;;12.98;88.60
77159;BME280;66129;45.890;13.714;2023-04-24T03:14:12;100118.56;;;12.92;88.68
77159;BME280;66129;45.890;13.714;2023-04-24T03:16:37;100129.72;;;12.91;88.88
77159;BME280;66129;45.890;13.714;2023-04-24T03:19:03;100083.41;;;12.67;89.05
77159;BME280;66129;45.890;13.714;2023-04-24T03:21:28;100134.00;;;13.01;88.64
77159;BME280;66129;45.890;13.714;2023-04-24T03:23:54;100099.69;;;12.81;89.18
77159;BME280;66129;45.890;13.714;2023-04-24T03:26:20;100074.84;;;12.73;89.42
77159;BME280;66129;45.890;13.714;2023-04-24T03:28:45;100108.28;;;12.91;89.71
77159;BME280;66129;45.890;13.714;2023-04-24T03:31:11;100100.56;;;12.91;89.66
77159;BME280;66129;45.890;13.714;2023-04-24T03:33:36;100079.09;;;12.69;90.27
77159;BME280;66129;45.890;13.714;2023-04-24T03:36:02;100128.88;;;12.91;91.03
77159;BME280;66129;45.890;13.714;2023-04-24T03:38:27;100122.00;;;12.82;91.17
77159;BME280;66129;45.890;13.714;2023-04-24T03:40:53;100118.53;;;12.76;91.01
77159;BME280;66129;45.890;13.714;2023-04-24T03:43:18;100112.53;;;12.69;91.34
77159;BME280;66129;45.890;13.714;2023-04-24T03:45:44;100062.81;;;12.43;91.02
77159;BME280;66129;45.890;13.714;2023-04-24T03:48:09;100119.41;;;12.78;91.00
77159;BME280;66129;45.890;13.714;2023-04-24T03:50:35;100051.69;;;12.44;91.03
77159;BME280;66129;45.890;13.714;2023-04-24T03:53:00;100113.44;;;12.92;90.58
77159;BME280;66129;45.890;13.714;2023-04-24T03:55:26;100116.88;;;12.96;90.24
77159;BME280;66129;45.890;13.714;2023-04-24T03:57:51;100047.41;;;12.57;90.64
77159;BME280;66129;45.890;13.714;2023-04-24T04:00:17;100115.13;;;12.90;90.63
77159;BME280;66129;45.890;13.714;2023-04-24T04:02:43;100108.28;;;12.86;90.92
77159;BME280;66129;45.890;13.714;2023-04-24T04:05:09;100073.13;;;12.70;90.64
77159;BME280;66129;45.890;13.714;2023-04-24T04:07:34;100127.16;;;12.97;90.61
77159;BME280;66129;45.890;13.714;2023-04-24T04:10:00;100056.00;;;12.57;90.31
77159;BME280;66129;45.890;13.714;2023-04-24T04:12:25;100107.44;;;12.98;88.62
77159;BME280;66129;45.890;13.714;2023-04-24T04:14:51;100099.72;;;13.08;87.64
77159;BME280;66129;45.890;13.714;2023-04-24T04:17:16;100078.28;;;13.03;87.76
77159;BME280;66129;45.890;13.714;2023-04-24T04:19:43;100028.53;;;12.77;87.91
77159;BME280;66129;45.890;13.714;2023-04-24T04:22:08;100037.97;;;12.81;87.73
77159;BME280;66129;45.890;13.714;2023-04-24T04:24:34;100049.97;;;12.90;87.86
77159;BME280;66129;45.890;13.714;2023-04-24T04:27:04;100037.97;;;12.84;87.87
77159;BME280;66129;45.890;13.714;2023-04-24T04:29:30;100026.81;;;12.82;88.04
77159;BME280;66129;45.890;13.714;2023-04-24T04:31:57;100105.69;;;13.24;87.55
77159;BME280;66129;45.890;13.714;2023-04-24T04:34:22;100106.56;;;13.23;87.23
77159;BME280;66129;45.890;13.714;2023-04-24T04:36:48;100112.53;;;13.29;86.68
77159;BME280;66129;45.890;13.714;2023-04-24T04:39:13;100107.38;;;13.32;86.73
77159;BME280;66129;45.890;13.714;2023-04-24T04:41:43;100073.97;;;13.16;86.42
77159;BME280;66129;45.890;13.714;2023-04-24T04:44:09;100097.09;;;13.35;85.55
77159;BME280;66129;45.890;13.714;2023-04-24T04:46:35;100105.66;;;13.43;85.04
77159;BME280;66129;45.890;13.714;2023-04-24T04:49:02;100102.19;;;13.45;84.97
77159;BME280;66129;45.890;13.714;2023-04-24T04:51:28;100106.50;;;13.45;85.39
77159;BME280;66129;45.890;13.714;2023-04-24T04:53:54;100092.78;;;13.34;85.40
77159;BME280;66129;45.890;13.714;2023-04-24T04:56:19;100076.50;;;13.32;85.18
77159;BME280;66129;45.890;13.714;2023-04-24T04:58:45;100107.38;;;13.47;85.54
77159;BME280;66129;45.890;13.714;2023-04-24T05:01:11;100104.78;;;13.42;86.01
77159;BME280;66129;45.890;13.714;2023-04-24T05:03:36;100073.94;;;13.19;86.52
77159;BME280;66129;45.890;13.714;2023-04-24T05:06:02;100096.22;;;13.39;85.52
77159;BME280;66129;45.890;13.714;2023-04-24T05:08:28;100101.34;;;13.46;85.71
77159;BME280;66129;45.890;13.714;2023-04-24T05:10:54;100103.91;;;13.46;85.59
77159;BME280;66129;45.890;13.714;2023-04-24T05:13:20;100103.06;;;13.44;86.21
77159;BME280;66129;45.890;13.714;2023-04-24T05:15:45;100100.50;;;13.40;86.55
77159;BME280;66129;45.890;13.714;2023-04-24T05:18:11;100102.22;;;13.38;86.88
77159;BME280;66129;45.890;13.714;2023-04-24T05:20:37;100097.09;;;13.29;87.21
77159;BME280;66129;45.890;13.714;2023-04-24T05:23:02;100103.13;;;13.21;87.30
77159;BME280;66129;45.890;13.714;2023-04-24T05:25:28;100102.28;;;13.17;87.61
77159;BME280;66129;45.890;13.714;2023-04-24T05:27:53;100085.13;;;13.07;87.49
77159;BME280;66129;45.890;13.714;2023-04-24T05:30:19;100095.41;;;13.13;88.05
77159;BME280;66129;45.890;13.714;2023-04-24T05:32:45;100114.28;;;13.18;87.86
77159;BME280;66129;45.890;13.714;2023-04-24T05:35:11;100118.56;;;13.24;87.27
77159;BME280;66129;45.890;13.714;2023-04-24T05:37:36;100115.13;;;13.22;87.29
77159;BME280;66129;45.890;13.714;2023-04-24T05:40:02;100119.41;;;13.29;87.12
77159;BME280;66129;45.890;13.714;2023-04-24T05:42:30;100124.53;;;13.34;85.09
77159;BME280;66129;45.890;13.714;2023-04-24T05:44:56;100091.97;;;13.28;83.70
77159;BME280;66129;45.890;13.714;2023-04-24T05:47:21;100104.78;;;13.42;84.36
77159;BME280;66129;45.890;13.714;2023-04-24T05:49:47;100109.06;;;13.49;84.79
77159;BME280;66129;45.890;13.714;2023-04-24T05:52:13;100099.66;;;13.44;84.86
77159;BME280;66129;45.890;13.714;2023-04-24T05:54:38;100093.66;;;13.42;85.47
77159;BME280;66129;45.890;13.714;2023-04-24T05:57:04;100105.63;;;13.44;85.62
77159;BME280;66129;45.890;13.714;2023-04-24T05:59:38;100114.22;;;13.46;85.71
77159;BME280;66129;45.890;13.714;2023-04-24T06:02:04;100126.19;;;13.55;86.07
77159;BME280;66129;45.890;13.714;2023-04-24T06:04:32;100081.66;;;13.29;85.95
77159;BME280;66129;45.890;13.714;2023-04-24T06:06:57;100114.25;;;13.27;86.46
77159;BME280;66129;45.890;13.714;2023-04-24T06:09:23;100072.25;;;13.04;86.30
77159;BME280;66129;45.890;13.714;2023-04-24T06:11:49;100086.84;;;13.14;85.26
77159;BME280;66129;45.890;13.714;2023-04-24T06:14:17;100061.94;;;13.18;85.25
77159;BME280;66129;45.890;13.714;2023-04-24T06:16:43;100103.94;;;13.37;85.60
77159;BME280;66129;45.890;13.714;2023-04-24T06:19:08;100116.81;;;13.42;86.20
77159;BME280;66129;45.890;13.714;2023-04-24T06:21:34;100115.09;;;13.41;86.32
77159;BME280;66129;45.890;13.714;2023-04-24T06:24:00;100066.25;;;13.17;86.82
77159;BME280;66129;45.890;13.714;2023-04-24T06:26:26;100073.94;;;13.26;86.91
77159;BME280;66129;45.890;13.714;2023-04-24T06:28:52;100097.94;;;13.35;87.03
77159;BME280;66129;45.890;13.714;2023-04-24T06:31:19;100105.66;;;13.43;87.16
77159;BME280;66129;45.890;13.714;2023-04-24T06:33:45;100081.66;;;13.32;87.02
77159;BME280;66129;45.890;13.714;2023-04-24T06:36:12;100075.66;;;13.26;87.67
77159;BME280;66129;45.890;13.714;2023-04-24T06:38:38;100119.38;;;13.46;87.60
77159;BME280;66129;45.890;13.714;2023-04-24T06:41:03;100122.81;;;13.47;88.09
77159;BME280;66129;45.890;13.714;2023-04-24T06:43:31;100105.69;;;13.25;88.60
77159;BME280;66129;45.890;13.714;2023-04-24T06:45:57;100091.13;;;13.09;89.70
77159;BME280;66129;45.890;13.714;2023-04-24T06:48:27;100146.00;;;13.38;90.50
77159;BME280;66129;45.890;13.714;2023-04-24T06:50:52;100126.25;;;13.31;90.97
77159;BME280;66129;45.890;13.714;2023-04-24T06:53:18;100135.69;;;13.39;91.77
77159;BME280;66129;45.890;13.714;2023-04-24T06:55:43;100091.97;;;13.10;91.82
77159;BME280;66129;45.890;13.714;2023-04-24T06:58:18;100049.97;;;12.91;92.03
77159;BME280;66129;45.890;13.714;2023-04-24T07:00:44;100055.97;;;12.87;91.99
77159;BME280;66129;45.890;13.714;2023-04-24T07:03:09;100065.41;;;12.93;92.55
77159;BME280;66129;45.890;13.714;2023-04-24T07:05:35;100043.09;;;12.80;92.68
77159;BME280;66129;45.890;13.714;2023-04-24T07:08:05;100122.84;;;13.26;92.90
77159;BME280;66129;45.890;13.714;2023-04-24T07:10:32;100091.16;;;12.96;93.11
77159;BME280;66129;45.890;13.714;2023-04-24T07:13:00;100103.13;;;13.12;93.10
77159;BME280;66129;45.890;13.714;2023-04-24T07:15:26;100121.97;;;13.27;92.56
77159;BME280;66129;45.890;13.714;2023-04-24T07:17:52;100108.28;;;13.15;91.82
77159;BME280;66129;45.890;13.714;2023-04-24T07:20:18;100043.09;;;12.77;92.32
77159;BME280;66129;45.890;13.714;2023-04-24T07:22:43;100095.41;;;13.18;91.82
77159;BME280;66129;45.890;13.714;2023-04-24T07:25:09;100040.53;;;12.80;92.10
77159;BME280;66129;45.890;13.714;2023-04-24T07:27:35;100092.81;;;13.12;91.88
77159;BME280;66129;45.890;13.714;2023-04-24T07:30:02;100018.25;;;12.74;91.38
77159;BME280;66129;45.890;13.714;2023-04-24T07:32:29;100092.81;;;13.21;91.22
77159;BME280;66129;45.890;13.714;2023-04-24T07:34:54;100039.69;;;12.96;91.27
77159;BME280;66129;45.890;13.714;2023-04-24T07:37:20;100100.50;;;13.49;90.93
77159;BME280;66129;45.890;13.714;2023-04-24T07:39:45;100054.25;;;13.19;90.96
77159;BME280;66129;45.890;13.714;2023-04-24T07:42:11;100070.53;;;13.20;92.37
77159;BME280;66129;45.890;13.714;2023-04-24T07:44:37;100049.09;;;13.15;92.94
77159;BME280;66129;45.890;13.714;2023-04-24T07:47:02;100066.22;;;13.29;90.20
77159;BME280;66129;45.890;13.714;2023-04-24T07:49:28;100105.59;;;13.58;89.57
77159;BME280;66129;45.890;13.714;2023-04-24T07:51:53;100055.91;;;13.29;90.57
77159;BME280;66129;45.890;13.714;2023-04-24T07:54:19;100050.78;;;13.28;90.95
77159;BME280;66129;45.890;13.714;2023-04-24T07:56:44;100103.91;;;13.51;92.09
77159;BME280;66129;45.890;13.714;2023-04-24T07:59:10;100082.50;;;13.28;92.24
77159;BME280;66129;45.890;13.714;2023-04-24T08:01:36;100087.66;;;13.31;92.40
77159;BME280;66129;45.890;13.714;2023-04-24T08:04:02;100033.66;;;13.06;92.83
77159;BME280;66129;45.890;13.714;2023-04-24T08:06:28;100072.22;;;13.24;93.00
77159;BME280;66129;45.890;13.714;2023-04-24T08:08:58;100094.47;;;13.51;93.25
77159;BME280;66129;45.890;13.714;2023-04-24T08:11:24;100068.75;;;13.36;92.78
77159;BME280;66129;45.890;13.714;2023-04-24T08:13:50;100070.47;;;13.39;93.16
77159;BME280;66129;45.890;13.714;2023-04-24T08:16:16;100074.72;;;13.53;91.54
77159;BME280;66129;45.890;13.714;2023-04-24T08:18:41;100020.69;;;13.43;91.59
77159;BME280;66129;45.890;13.714;2023-04-24T08:21:07;100082.31;;;13.89;90.24
77159;BME280;66129;45.890;13.714;2023-04-24T08:23:33;100060.03;;;13.73;89.30
77159;BME280;66129;45.890;13.714;2023-04-24T08:25:58;100082.28;;;13.91;89.46
77159;BME280;66129;45.890;13.714;2023-04-24T08:28:25;100065.19;;;13.70;90.02
77159;BME280;66129;45.890;13.714;2023-04-24T08:30:51;100044.66;;;13.61;89.63
77159;BME280;66129;45.890;13.714;2023-04-24T08:33:21;100090.00;;;13.91;89.65
77159;BME280;66129;45.890;13.714;2023-04-24T08:35:46;100090.88;;;13.90;90.77
77159;BME280;66129;45.890;13.714;2023-04-24T08:38:12;100045.50;;;13.59;90.54
77159;BME280;66129;45.890;13.714;2023-04-24T08:40:37;100072.94;;;13.69;91.98
77159;BME280;66129;45.890;13.714;2023-04-24T08:43:03;100049.00;;;13.44;92.47
77159;BME280;66129;45.890;13.714;2023-04-24T08:45:29;100067.03;;;13.44;92.42
77159;BME280;66129;45.890;13.714;2023-04-24T08:47:55;100106.44;;;13.60;92.68
77159;BME280;66129;45.890;13.714;2023-04-24T08:50:21;100116.72;;;13.64;92.41
77159;BME280;66129;45.890;13.714;2023-04-24T08:52:49;100086.78;;;13.41;93.14
77159;BME280;66129;45.890;13.714;2023-04-24T08:55:16;100085.06;;;13.31;93.52
77159;BME280;66129;45.890;13.714;2023-04-24T08:57:45;100109.94;;;13.36;93.61
77159;BME280;66129;45.890;13.714;2023-04-24T09:00:11;100100.56;;;13.19;94.08
77159;BME280;66129;45.890;13.714;2023-04-24T09:02:41;100123.72;;;13.19;94.53
77159;BME280;66129;45.890;13.714;2023-04-24T09:05:07;100117.69;;;13.20;93.99
77159;BME280;66129;45.890;13.714;2023-04-24T09:07:35;100097.13;;;13.14;94.10
77159;BME280;66129;45.890;13.714;2023-04-24T09:10:02;100108.28;;;13.19;94.28
77159;BME280;66129;45.890;13.714;2023-04-24T09:12:28;100075.69;;;13.03;94.04
77159;BME280;66129;45.890;13.714;2023-04-24T09:14:54;100078.28;;;13.00;94.43
77159;BME280;66129;45.890;13.714;2023-04-24T09:17:20;100116.00;;;13.19;94.22
77159;BME280;66129;45.890;13.714;2023-04-24T09:19:48;100082.56;;;13.01;94.09
77159;BME280;66129;45.890;13.714;2023-04-24T09:22:14;100115.13;;;13.10;94.72
77159;BME280;66129;45.890;13.714;2023-04-24T09:24:40;100112.56;;;13.08;95.14
77159;BME280;66129;45.890;13.714;2023-04-24T09:27:07;100108.28;;;13.15;95.24
77159;BME280;66129;45.890;13.714;2023-04-24T09:29:32;100086.84;;;13.08;95.04
77159;BME280;66129;45.890;13.714;2023-04-24T09:31:59;100104.84;;;13.28;95.11
77159;BME280;66129;45.890;13.714;2023-04-24T09:37:04;100087.66;;;13.25;95.33
77159;BME280;66129;45.890;13.714;2023-04-24T09:39:30;100076.53;;;13.17;95.68
77159;BME280;66129;45.890;13.714;2023-04-24T09:41:56;100095.41;;;13.16;95.46
77159;BME280;66129;45.890;13.714;2023-04-24T09:44:27;100110.81;;;13.22;95.53
77159;BME280;66129;45.890;13.714;2023-04-24T09:46:57;100095.38;;;13.22;95.55
77159;BME280;66129;45.890;13.714;2023-04-24T09:49:28;100086.81;;;13.26;95.49
77159;BME280;66129;45.890;13.714;2023-04-24T09:54:29;100071.41;;;13.17;95.11
77159;BME280;66129;45.890;13.714;2023-04-24T09:56:55;100074.78;;;13.22;95.51
77159;BME280;66129;45.890;13.714;2023-04-24T09:59:21;100078.22;;;13.30;95.39
77159;BME280;66129;45.890;13.714;2023-04-24T10:01:47;100081.63;;;13.39;95.20
77159;BME280;66129;45.890;13.714;2023-04-24T10:04:24;100076.47;;;13.41;94.94
77159;BME280;66129;45.890;13.714;2023-04-24T10:06:52;100074.75;;;13.38;95.38
77159;BME280;66129;45.890;13.714;2023-04-24T10:09:19;100074.78;;;13.28;95.50
77159;BME280;66129;45.890;13.714;2023-04-24T10:11:46;100077.38;;;13.32;95.43
77159;BME280;66129;45.890;13.714;2023-04-24T10:14:14;100076.50;;;13.31;95.87
77159;BME280;66129;45.890;13.714;2023-04-24T10:16:40;100070.50;;;13.32;95.32
77159;BME280;66129;45.890;13.714;2023-04-24T10:19:07;100048.22;;;13.16;95.33
77159;BME280;66129;45.890;13.714;2023-04-24T10:21:34;100062.78;;;13.24;94.96
77159;BME280;66129;45.890;13.714;2023-04-24T10:24:00;100058.53;;;13.11;95.51
77159;BME280;66129;45.890;13.714;2023-04-24T10:26:29;100077.38;;;13.21;95.70
77159;BME280;66129;45.890;13.714;2023-04-24T10:28:57;100073.94;;;13.31;95.84
77159;BME280;66129;45.890;13.714;2023-04-24T10:31:22;100002.81;;;12.97;95.85
77159;BME280;66129;45.890;13.714;2023-04-24T10:33:49;100073.03;;;13.43;95.45
77159;BME280;66129;45.890;13.714;2023-04-24T10:36:17;100067.91;;;13.42;95.46
77159;BME280;66129;45.890;13.714;2023-04-24T10:38:45;100050.75;;;13.29;95.75
77159;BME280;66129;45.890;13.714;2023-04-24T10:41:12;100067.03;;;13.40;95.56
77159;BME280;66129;45.890;13.714;2023-04-24T10:44:12;100084.16;;;13.53;95.12
77159;BME280;66129;45.890;13.714;2023-04-24T10:46:42;100085.84;;;13.57;94.89
77159;BME280;66129;45.890;13.714;2023-04-24T10:49:08;100088.44;;;13.54;94.90
77159;BME280;66129;45.890;13.714;2023-04-24T10:52:03;100085.88;;;13.52;95.03
77159;BME280;66129;45.890;13.714;2023-04-24T10:54:44;100085.91;;;13.46;95.93
77159;BME280;66129;45.890;13.714;2023-04-24T11:00:09;100085.88;;;13.61;94.51
77159;BME280;66129;45.890;13.714;2023-04-24T11:02:36;100083.25;;;13.72;93.33
77159;BME280;66129;45.890;13.714;2023-04-24T11:05:03;100090.97;;;13.72;92.49
77159;BME280;66129;45.890;13.714;2023-04-24T11:07:29;100068.69;;;13.62;92.42
77159;BME280;66129;45.890;13.714;2023-04-24T11:09:58;100083.25;;;13.64;94.06
77159;BME280;66129;45.890;13.714;2023-04-24T11:12:26;100099.59;;;13.56;94.82
77159;BME280;66129;45.890;13.714;2023-04-24T11:17:31;100088.53;;;13.26;94.70
77159;BME280;66129;45.890;13.714;2023-04-24T11:20:08;100096.25;;;13.17;94.68
77159;BME280;66129;45.890;13.714;2023-04-24T11:22:39;100093.69;;;13.18;98.52
77159;BME280;66129;45.890;13.714;2023-04-24T11:25:09;100097.13;;;13.14;96.52
77159;BME280;66129;45.890;13.714;2023-04-24T11:27:40;100093.66;;;13.24;96.13
77159;BME280;66129;45.890;13.714;2023-04-24T11:30:08;100059.38;;;13.06;95.08
77159;BME280;66129;45.890;13.714;2023-04-24T11:35:22;100079.09;;;13.25;93.93
77159;BME280;66129;45.890;13.714;2023-04-24T11:37:53;100097.91;;;13.38;92.71
77159;BME280;66129;45.890;13.714;2023-04-24T11:40:20;100094.50;;;13.41;93.33
77159;BME280;66129;45.890;13.714;2023-04-24T11:42:49;100106.47;;;13.51;93.61
77159;BME280;66129;45.890;13.714;2023-04-24T11:45:26;100080.78;;;13.42;93.34
77159;BME280;66129;45.890;13.714;2023-04-24T11:47:52;100104.72;;;13.65;92.10
77159;BME280;66129;45.890;13.714;2023-04-24T11:50:20;100094.47;;;13.57;92.07
77159;BME280;66129;45.890;13.714;2023-04-24T11:52:48;100101.25;;;13.75;94.87
77159;BME280;66129;45.890;13.714;2023-04-24T11:57:39;100088.41;;;13.66;88.20
77159;BME280;66129;45.890;13.714;2023-04-24T12:02:41;100097.81;;;13.79;89.71
77159;BME280;66129;45.890;13.714;2023-04-24T12:05:06;100101.19;;;13.87;89.77
77159;BME280;66129;45.890;13.714;2023-04-24T12:07:40;100080.59;;;13.81;90.94
77159;BME280;66129;45.890;13.714;2023-04-24T12:10:08;100095.19;;;13.88;91.65
77159;BME280;66129;45.890;13.714;2023-04-24T12:12:34;100094.34;;;13.83;91.73
77159;BME280;66129;45.890;13.714;2023-04-24T12:15:01;100083.22;;;13.70;92.12
77159;BME280;66129;45.890;13.714;2023-04-24T12:17:31;100096.91;;;13.83;90.23
77159;BME280;66129;45.890;13.714;2023-04-24T12:19:58;100096.03;;;13.87;90.18
77159;BME280;66129;45.890;13.714;2023-04-24T12:22:25;100094.25;;;13.99;89.52
77159;BME280;66129;45.890;13.714;2023-04-24T12:25:04;100083.06;;;14.06;91.27
77159;BME280;66129;45.890;13.714;2023-04-24T12:27:33;100102.78;;;14.18;90.65
77159;BME280;66129;45.890;13.714;2023-04-24T12:30:00;100077.06;;;14.07;87.36
77159;BME280;66129;45.890;13.714;2023-04-24T12:32:27;100070.16;;;14.11;86.07
77159;BME280;66129;45.890;13.714;2023-04-24T12:34:53;100078.75;;;14.08;88.10
77159;BME280;66129;45.890;13.714;2023-04-24T12:37:20;100077.88;;;14.20;88.37
77159;BME280;66129;45.890;13.714;2023-04-24T12:40:18;100083.91;;;14.11;88.51
77159;BME280;66129;45.890;13.714;2023-04-24T12:42:49;100085.63;;;14.12;89.78
77159;BME280;66129;45.890;13.714;2023-04-24T12:45:16;100082.16;;;14.18;89.38
77159;BME280;66129;45.890;13.714;2023-04-24T12:47:42;100052.13;;;14.06;89.17
77159;BME280;66129;45.890;13.714;2023-04-24T12:50:10;100077.03;;;14.18;89.55
77159;BME280;66129;45.890;13.714;2023-04-24T12:52:36;100054.69;;;14.14;92.05
77159;BME280;66129;45.890;13.714;2023-04-24T12:55:03;100071.00;;;14.19;91.76
77159;BME280;66129;45.890;13.714;2023-04-24T12:57:30;100070.16;;;14.18;90.70